createdAt,value
2023-06-16T00:02:18.862Z,9.10
2023-06-16T00:04:50.806Z,10.18
2023-06-16T00:07:20.920Z,10.15
2023-06-16T00:09:48.768Z,10.55
2023-06-16T00:12:16.491Z,10.00
2023-06-16T00:14:44.243Z,10.80
2023-06-16T00:17:13.507Z,10.55
2023-06-16T00:19:42.082Z,11.07
2023-06-16T00:22:10.878Z,10.88
2023-06-16T00:24:38.681Z,12.27
2023-06-16T00:27:07.012Z,10.43
2023-06-16T00:29:34.791Z,10.50
2023-06-16T00:32:02.627Z,11.63
2023-06-16T00:34:31.810Z,12.40
2023-06-16T00:37:00.040Z,12.70
2023-06-16T00:39:27.806Z,13.50
2023-06-16T00:41:55.975Z,14.23
2023-06-16T00:44:23.830Z,15.00
2023-06-16T00:46:51.805Z,14.25
2023-06-16T00:49:20.219Z,14.85
2023-06-16T00:51:50.493Z,15.57
2023-06-16T00:54:18.665Z,15.07
2023-06-16T00:56:46.577Z,14.82
2023-06-16T00:59:14.506Z,14.93
2023-06-16T01:01:42.290Z,14.50
2023-06-16T01:04:10.944Z,13.57
2023-06-16T01:06:52.578Z,13.35
2023-06-16T01:09:26.707Z,13.43
2023-06-16T01:12:08.212Z,14.77
2023-06-16T01:14:44.824Z,14.45
2023-06-16T01:17:16.458Z,14.02
2023-06-16T01:19:48.616Z,14.02
2023-06-16T01:24:55.789Z,13.35
2023-06-16T01:29:52.760Z,11.98
2023-06-16T01:32:22.632Z,10.98
2023-06-16T01:34:52.246Z,12.88
2023-06-16T01:37:20.780Z,13.30
2023-06-16T01:39:49.856Z,12.50
2023-06-16T01:42:19.909Z,14.35
2023-06-16T01:44:49.114Z,13.60
2023-06-16T01:47:17.069Z,12.85
2023-06-16T01:49:45.417Z,12.00
2023-06-16T01:52:13.248Z,11.90
2023-06-16T01:54:40.983Z,13.25
2023-06-16T01:57:09.051Z,12.48
2023-06-16T01:59:38.223Z,11.95
2023-06-16T02:02:14.668Z,11.43
2023-06-16T02:04:47.402Z,10.68
2023-06-16T02:07:20.627Z,10.80
2023-06-16T02:09:51.016Z,10.65
2023-06-16T02:12:19.434Z,11.38
2023-06-16T02:14:49.337Z,11.73
2023-06-16T02:17:17.087Z,13.77
2023-06-16T02:19:44.837Z,12.73
2023-06-16T02:22:12.669Z,13.15
2023-06-16T02:24:40.377Z,12.13
2023-06-16T02:27:10.105Z,13.40
2023-06-16T02:29:37.943Z,13.27
2023-06-16T02:32:08.256Z,13.50
2023-06-16T02:34:36.123Z,14.07
2023-06-16T02:37:04.174Z,13.55
2023-06-16T02:39:31.998Z,13.15
2023-06-16T02:42:00.917Z,15.25
2023-06-16T02:44:28.715Z,13.80
2023-06-16T02:46:58.172Z,13.30
2023-06-16T02:49:27.743Z,12.95
2023-06-16T02:51:55.641Z,12.70
2023-06-16T02:54:23.370Z,12.48
2023-06-16T02:56:51.115Z,12.88
2023-06-16T02:59:18.898Z,14.30
2023-06-16T03:01:46.689Z,12.27
2023-06-16T03:04:14.612Z,11.80
2023-06-16T03:06:46.191Z,12.60
2023-06-16T03:09:13.974Z,12.80
2023-06-16T03:11:42.793Z,15.80
2023-06-16T03:14:10.716Z,12.30
2023-06-16T03:16:41.935Z,11.40
2023-06-16T03:19:09.789Z,11.60
2023-06-16T03:21:38.383Z,11.45
2023-06-16T03:24:07.884Z,12.68
2023-06-16T03:26:37.497Z,12.05
2023-06-16T03:29:06.707Z,11.23
2023-06-16T03:31:34.739Z,12.20
2023-06-16T03:34:14.775Z,11.15
2023-06-16T03:36:50.691Z,12.65
2023-06-16T03:39:19.903Z,11.75
2023-06-16T03:41:47.636Z,11.63
2023-06-16T03:44:15.435Z,12.20
2023-06-16T03:46:43.137Z,11.93
2023-06-16T03:49:12.974Z,11.73
2023-06-16T03:51:41.225Z,12.35
2023-06-16T03:54:09.292Z,12.27
2023-06-16T03:56:38.382Z,12.05
2023-06-16T03:59:06.144Z,12.13
2023-06-16T04:01:33.999Z,13.13
2023-06-16T04:04:01.770Z,13.07
2023-06-16T04:06:29.570Z,13.20
2023-06-16T04:08:58.191Z,13.07
2023-06-16T04:11:27.620Z,12.50
2023-06-16T04:13:56.895Z,12.45
2023-06-16T04:16:24.635Z,13.65
2023-06-16T04:18:52.414Z,13.10
2023-06-16T04:21:20.176Z,13.02
2023-06-16T04:23:47.935Z,11.93
2023-06-16T04:26:20.325Z,12.50
2023-06-16T04:28:54.509Z,12.00
2023-06-16T04:31:23.908Z,11.82
2023-06-16T04:33:51.608Z,11.68
2023-06-16T04:36:20.634Z,11.60
2023-06-16T04:38:48.543Z,10.98
2023-06-16T04:41:16.265Z,11.70
2023-06-16T04:43:44.027Z,11.85
2023-06-16T04:46:12.007Z,10.13
2023-06-16T04:48:41.208Z,10.32
2023-06-16T04:51:09.389Z,9.77
2023-06-16T04:53:37.903Z,9.52
2023-06-16T04:56:07.786Z,9.60
2023-06-16T04:58:38.013Z,9.20
2023-06-16T05:01:05.780Z,9.32
2023-06-16T05:03:33.655Z,9.02
2023-06-16T05:06:03.008Z,9.55
2023-06-16T05:08:30.804Z,10.10
2023-06-16T05:10:58.541Z,9.07
2023-06-16T05:13:26.313Z,8.98
2023-06-16T05:15:54.729Z,9.27
2023-06-16T05:18:22.527Z,9.68
2023-06-16T05:20:50.560Z,9.52
2023-06-16T05:23:19.669Z,10.20
2023-06-16T05:25:47.431Z,9.23
2023-06-16T05:28:15.237Z,10.02
2023-06-16T05:30:43.021Z,9.55
2023-06-16T05:33:10.832Z,9.18
2023-06-16T05:35:38.686Z,9.32
2023-06-16T05:38:06.482Z,10.05
2023-06-16T05:40:36.352Z,9.52
2023-06-16T05:43:04.226Z,9.88
2023-06-16T05:45:31.968Z,8.80
2023-06-16T05:47:59.726Z,9.07
2023-06-16T05:50:27.502Z,8.70
2023-06-16T05:52:55.181Z,8.88
2023-06-16T05:55:23.097Z,7.65
2023-06-16T05:57:52.311Z,6.97
2023-06-16T06:00:20.900Z,7.78
2023-06-16T06:02:49.133Z,7.43
2023-06-16T06:05:17.355Z,6.45
2023-06-16T06:07:45.091Z,5.78
2023-06-16T06:10:12.926Z,6.47
2023-06-16T06:12:40.761Z,6.05
2023-06-16T06:15:11.886Z,7.00
2023-06-16T06:17:39.708Z,5.40
2023-06-16T06:20:08.762Z,5.88
2023-06-16T06:22:36.463Z,5.40
2023-06-16T06:25:05.613Z,5.53
2023-06-16T06:27:33.401Z,5.22
2023-06-16T06:30:01.173Z,5.82
2023-06-16T06:32:30.313Z,6.25
2023-06-16T06:34:58.039Z,5.97
2023-06-16T06:37:30.362Z,5.55
2023-06-16T06:39:58.270Z,5.22
2023-06-16T06:42:27.812Z,6.20
2023-06-16T06:44:55.661Z,5.68
2023-06-16T06:47:23.666Z,5.03
2023-06-16T06:49:52.834Z,5.43
2023-06-16T06:52:20.786Z,6.47
2023-06-16T06:54:48.744Z,5.60
2023-06-16T06:57:16.693Z,5.55
2023-06-16T06:59:44.619Z,5.00
2023-06-16T07:02:12.405Z,5.30
2023-06-16T07:04:40.933Z,5.68
2023-06-16T07:07:10.115Z,5.53
2023-06-16T07:09:37.921Z,5.63
2023-06-16T07:12:06.316Z,5.03
2023-06-16T07:14:34.080Z,4.45
2023-06-16T07:17:03.660Z,5.22
2023-06-16T07:19:31.401Z,4.90
2023-06-16T07:21:59.144Z,5.05
2023-06-16T07:24:28.424Z,4.78
2023-06-16T07:26:56.416Z,4.70
2023-06-16T07:29:24.166Z,4.90
2023-06-16T07:31:51.951Z,4.85
2023-06-16T07:34:19.832Z,4.70
2023-06-16T07:36:47.955Z,5.57
2023-06-16T07:39:15.709Z,5.38
2023-06-16T07:41:44.838Z,4.90
2023-06-16T07:44:12.598Z,4.80
2023-06-16T07:49:08.672Z,5.38
2023-06-16T07:51:36.487Z,5.45
2023-06-16T07:54:05.093Z,5.07
2023-06-16T07:56:32.827Z,5.35
2023-06-16T07:59:02.270Z,4.72
2023-06-16T08:01:30.196Z,4.55
2023-06-16T08:03:59.200Z,5.32
2023-06-16T08:06:28.273Z,4.82
2023-06-16T08:08:57.624Z,4.85
2023-06-16T08:11:25.540Z,4.60
2023-06-16T08:13:53.570Z,5.15
2023-06-16T08:16:22.912Z,4.70
2023-06-16T08:18:51.662Z,4.10
2023-06-16T08:21:20.627Z,4.82
2023-06-16T08:23:48.927Z,4.20
2023-06-16T08:26:17.064Z,4.15
2023-06-16T08:28:45.859Z,4.05
2023-06-16T08:31:13.932Z,4.85
2023-06-16T08:33:43.043Z,4.22
2023-06-16T08:36:11.139Z,4.32
2023-06-16T08:38:41.578Z,4.15
2023-06-16T08:41:11.344Z,4.25
2023-06-16T08:43:39.573Z,3.75
2023-06-16T08:46:10.200Z,3.63
2023-06-16T08:48:39.068Z,4.38
2023-06-16T08:51:12.233Z,3.95
2023-06-16T08:53:41.728Z,3.85
2023-06-16T08:56:11.943Z,3.67
2023-06-16T08:58:41.784Z,4.07
2023-06-16T09:01:09.966Z,4.32
2023-06-16T09:03:38.527Z,4.28
2023-06-16T09:06:10.411Z,4.40
2023-06-16T09:11:08.798Z,5.10
2023-06-16T09:13:37.344Z,4.38
2023-06-16T09:16:07.150Z,4.30
2023-06-16T09:18:42.733Z,4.43
2023-06-16T09:21:12.614Z,4.35
2023-06-16T09:23:40.593Z,4.32
2023-06-16T09:26:13.363Z,3.17
2023-06-16T09:28:41.318Z,3.70
2023-06-16T09:31:13.432Z,4.20
2023-06-16T09:33:41.821Z,3.97
2023-06-16T09:36:11.396Z,3.95
2023-06-16T09:38:39.925Z,3.63
2023-06-16T09:41:11.978Z,3.40
2023-06-16T09:43:40.970Z,3.80
2023-06-16T09:46:11.460Z,3.38
2023-06-16T09:48:48.496Z,3.47
2023-06-16T09:51:22.996Z,3.53
2023-06-16T09:53:53.103Z,3.53
2023-06-16T09:56:21.620Z,3.40
2023-06-16T09:58:51.120Z,4.13
2023-06-16T10:01:20.704Z,3.00
2023-06-16T10:03:50.609Z,2.80
2023-06-16T10:06:23.054Z,3.72
2023-06-16T10:08:52.178Z,3.33
2023-06-16T10:11:21.127Z,2.90
2023-06-16T10:13:52.967Z,3.17
2023-06-16T10:16:24.141Z,3.53
2023-06-16T10:18:56.164Z,4.03
2023-06-16T10:21:25.593Z,3.92
2023-06-16T10:23:55.070Z,3.72
2023-06-16T10:26:23.629Z,4.10
2023-06-16T10:28:52.631Z,4.20
2023-06-16T10:31:20.888Z,4.32
2023-06-16T10:33:55.536Z,4.13
2023-06-16T10:36:25.958Z,4.05
2023-06-16T10:38:59.063Z,4.20
2023-06-16T10:41:27.845Z,4.60
2023-06-16T10:43:55.535Z,4.60
2023-06-16T10:46:23.564Z,4.63
2023-06-16T10:49:13.214Z,4.68
2023-06-16T10:51:43.931Z,4.30
2023-06-16T10:54:11.712Z,4.68
2023-06-16T10:59:56.013Z,4.45
2023-06-16T11:02:25.898Z,4.78
2023-06-16T11:05:16.352Z,4.13
2023-06-16T11:07:47.662Z,4.18
2023-06-16T11:10:20.111Z,4.47
2023-06-16T11:12:48.466Z,4.70
2023-06-16T11:15:16.455Z,4.45
2023-06-16T11:17:45.106Z,4.57
2023-06-16T11:20:14.525Z,4.07
2023-06-16T11:22:44.030Z,4.82
2023-06-16T11:25:14.202Z,4.82
2023-06-16T11:27:42.254Z,4.00
2023-06-16T11:30:10.549Z,4.25
2023-06-16T11:32:39.480Z,5.15
2023-06-16T11:35:08.243Z,4.60
2023-06-16T11:37:43.604Z,4.70
2023-06-16T11:40:12.810Z,4.10
2023-06-16T11:42:42.064Z,4.38
2023-06-16T11:45:10.597Z,4.30
2023-06-16T11:47:38.834Z,4.60
2023-06-16T11:50:07.927Z,4.57
2023-06-16T11:52:37.504Z,4.72
2023-06-16T11:55:06.153Z,4.43
2023-06-16T11:57:38.230Z,4.50
2023-06-16T12:00:09.878Z,4.65
2023-06-16T12:05:08.602Z,4.25
2023-06-16T12:07:37.292Z,5.18
2023-06-16T12:10:06.531Z,4.40
2023-06-16T12:12:34.885Z,4.55
2023-06-16T12:15:04.720Z,4.63
2023-06-16T12:17:35.298Z,4.78
2023-06-16T12:20:07.875Z,4.60
2023-06-16T12:22:39.742Z,4.43
2023-06-16T12:25:11.700Z,4.50
2023-06-16T12:27:39.944Z,4.43
2023-06-16T12:30:09.089Z,4.30
2023-06-16T12:32:38.400Z,4.25
2023-06-16T12:35:07.068Z,4.45
2023-06-16T12:37:34.880Z,4.20
2023-06-16T12:40:07.370Z,4.50
2023-06-16T12:42:35.994Z,5.85
2023-06-16T12:45:06.482Z,4.70
2023-06-16T12:47:35.621Z,4.00
2023-06-16T12:50:07.085Z,4.43
2023-06-16T12:55:04.791Z,4.30
2023-06-16T12:57:32.754Z,4.32
2023-06-16T13:00:00.624Z,4.72
2023-06-16T13:02:28.467Z,4.20
2023-06-16T13:04:56.577Z,4.68
2023-06-16T13:07:25.900Z,4.85
2023-06-16T13:09:53.663Z,4.97
2023-06-16T13:12:21.624Z,5.05
2023-06-16T13:14:49.468Z,4.25
2023-06-16T13:17:17.512Z,4.63
2023-06-16T13:19:47.400Z,4.55
2023-06-16T13:22:17.133Z,4.47
2023-06-16T13:24:46.355Z,4.00
2023-06-16T13:27:14.141Z,4.30
2023-06-16T13:29:41.897Z,4.55
2023-06-16T13:32:09.950Z,4.25
2023-06-16T13:34:37.760Z,4.88
2023-06-16T13:37:05.866Z,4.30
2023-06-16T13:39:33.678Z,4.70
2023-06-16T13:42:02.766Z,4.60
2023-06-16T13:44:30.553Z,4.40
2023-06-16T13:46:58.332Z,4.30
2023-06-16T13:49:26.191Z,4.43
2023-06-16T13:51:54.021Z,3.78
2023-06-16T13:54:21.809Z,4.32
2023-06-16T13:56:51.226Z,4.57
2023-06-16T13:59:20.445Z,4.22
2023-06-16T14:01:48.253Z,4.50
2023-06-16T14:04:16.038Z,4.30
2023-06-16T14:06:44.841Z,4.38
2023-06-16T14:09:12.665Z,4.20
2023-06-16T14:11:40.509Z,4.50
2023-06-16T14:14:08.302Z,4.40
2023-06-16T14:16:37.583Z,4.35
2023-06-16T14:19:06.044Z,4.53
2023-06-16T14:21:33.814Z,5.10
2023-06-16T14:24:01.665Z,4.78
2023-06-16T14:26:29.440Z,3.97
2023-06-16T14:28:57.215Z,5.05
2023-06-16T14:31:25.301Z,4.88
2023-06-16T14:33:55.909Z,4.80
2023-06-16T14:36:23.671Z,5.28
2023-06-16T14:38:51.507Z,4.80
2023-06-16T14:41:19.293Z,5.43
2023-06-16T14:43:47.119Z,4.60
2023-06-16T14:46:14.883Z,4.78
2023-06-16T14:48:42.659Z,4.90
2023-06-16T14:51:11.860Z,4.72
2023-06-16T14:53:39.662Z,5.10
2023-06-16T14:56:07.475Z,5.18
2023-06-16T14:58:35.282Z,5.20
2023-06-16T15:01:03.058Z,4.55
2023-06-16T15:03:30.938Z,4.13
2023-06-16T15:05:58.845Z,4.95
2023-06-16T15:08:27.998Z,4.55
2023-06-16T15:10:55.835Z,4.43
2023-06-16T15:13:23.552Z,4.60
2023-06-16T15:15:51.493Z,4.97
2023-06-16T15:18:19.358Z,4.57
2023-06-16T15:20:47.142Z,5.03
2023-06-16T15:23:14.921Z,5.10
2023-06-16T15:25:44.058Z,4.65
2023-06-16T15:28:13.145Z,5.10
2023-06-16T15:30:41.230Z,4.82
2023-06-16T15:33:09.099Z,4.40
2023-06-16T15:35:37.104Z,5.15
2023-06-16T15:38:04.965Z,4.93
2023-06-16T15:40:32.655Z,5.13
2023-06-16T15:43:06.432Z,5.40
2023-06-16T15:45:34.181Z,5.35
2023-06-16T15:48:02.776Z,4.78
2023-06-16T15:50:31.562Z,5.13
2023-06-16T15:52:59.314Z,5.30
2023-06-16T15:55:27.181Z,4.70
2023-06-16T15:57:54.972Z,5.65
2023-06-16T16:00:24.142Z,5.72
2023-06-16T16:02:52.031Z,5.70
2023-06-16T16:05:20.637Z,5.38
2023-06-16T16:07:48.444Z,5.53
2023-06-16T16:10:16.887Z,5.65
2023-06-16T16:12:44.654Z,5.30
2023-06-16T16:15:12.630Z,5.63
2023-06-16T16:17:41.898Z,5.82
2023-06-16T16:20:10.626Z,5.20
2023-06-16T16:22:38.454Z,5.22
2023-06-16T16:25:06.974Z,4.95
2023-06-16T16:27:37.113Z,5.32
2023-06-16T16:30:05.702Z,5.50
2023-06-16T16:32:33.465Z,4.63
2023-06-16T16:35:02.744Z,5.50
2023-06-16T16:37:30.467Z,4.90
2023-06-16T16:39:58.195Z,5.82
2023-06-16T16:42:26.095Z,5.57
2023-06-16T16:44:53.977Z,6.00
2023-06-16T16:47:21.813Z,6.00
2023-06-16T16:49:49.595Z,5.78
2023-06-16T16:52:18.684Z,5.65
2023-06-16T16:54:46.540Z,6.53
2023-06-16T16:57:14.483Z,6.57
2023-06-16T16:59:42.290Z,6.40
2023-06-16T17:02:10.132Z,6.07
2023-06-16T17:04:38.097Z,6.40
2023-06-16T17:07:08.182Z,5.95
2023-06-16T17:09:39.068Z,6.07
2023-06-16T17:12:07.925Z,5.80
2023-06-16T17:14:35.704Z,5.10
2023-06-16T17:17:03.492Z,6.97
2023-06-16T17:19:31.272Z,6.05
2023-06-16T17:21:59.280Z,6.18
2023-06-16T17:24:27.839Z,6.18
2023-06-16T17:26:57.512Z,6.30
2023-06-16T17:29:25.499Z,5.93
2023-06-16T17:31:53.261Z,6.03
2023-06-16T17:34:21.095Z,5.40
2023-06-16T17:36:48.807Z,5.80
2023-06-16T17:39:16.521Z,6.20
2023-06-16T17:41:44.447Z,5.75
2023-06-16T17:44:13.843Z,5.72
2023-06-16T17:46:42.230Z,6.18
2023-06-16T17:49:10.095Z,6.28
2023-06-16T17:51:38.010Z,6.50
2023-06-16T17:54:05.995Z,6.10
2023-06-16T17:56:34.635Z,6.30
2023-06-16T17:59:02.896Z,5.95
2023-06-16T18:01:32.196Z,5.60
2023-06-16T18:04:00.380Z,6.95
2023-06-16T18:06:28.129Z,6.50
2023-06-16T18:08:56.614Z,6.07
2023-06-16T18:11:24.567Z,5.95
2023-06-16T18:13:52.445Z,6.15
2023-06-16T18:16:20.241Z,6.05
2023-06-16T18:18:49.370Z,15.27
2023-06-16T18:21:17.254Z,5.90
2023-06-16T18:23:45.073Z,6.00
2023-06-16T18:26:12.951Z,5.82
2023-06-16T18:28:40.771Z,6.03
2023-06-16T18:31:08.600Z,6.28
2023-06-16T18:33:36.405Z,5.72
2023-06-16T18:36:06.027Z,5.18
2023-06-16T18:38:33.771Z,5.72
2023-06-16T18:41:02.073Z,5.80
2023-06-16T18:43:29.825Z,5.88
2023-06-16T18:45:57.698Z,5.68
2023-06-16T18:48:25.727Z,5.57
2023-06-16T18:50:53.523Z,5.82
2023-06-16T18:53:23.358Z,5.80
2023-06-16T18:55:51.718Z,5.90
2023-06-16T18:58:19.576Z,5.93
2023-06-16T19:00:47.376Z,5.80
2023-06-16T19:03:15.202Z,5.32
2023-06-16T19:05:43.135Z,5.70
2023-06-16T19:08:12.400Z,5.60
2023-06-16T19:10:41.611Z,6.68
2023-06-16T19:13:10.444Z,7.78
2023-06-16T19:15:38.343Z,6.72
2023-06-16T19:18:06.215Z,7.00
2023-06-16T19:20:34.074Z,11.50
2023-06-16T19:23:01.859Z,6.72
2023-06-16T19:25:29.643Z,5.50
2023-06-16T19:27:58.937Z,6.25
2023-06-16T19:30:26.935Z,5.97
2023-06-16T19:32:54.860Z,5.70
2023-06-16T19:35:24.179Z,5.78
2023-06-16T19:37:52.132Z,6.10
2023-06-16T19:40:20.149Z,5.93
2023-06-16T19:42:48.148Z,6.28
2023-06-16T19:45:17.787Z,6.22
2023-06-16T19:47:47.058Z,6.10
2023-06-16T19:50:14.999Z,10.15
2023-06-16T19:52:44.346Z,6.82
2023-06-16T19:55:12.272Z,5.43
2023-06-16T19:57:39.981Z,5.72
2023-06-16T20:00:09.710Z,6.20
2023-06-16T20:02:39.387Z,6.20
2023-06-16T20:05:07.915Z,5.90
2023-06-16T20:07:37.961Z,6.00
2023-06-16T20:10:06.436Z,6.22
2023-06-16T20:12:34.222Z,6.00
2023-06-16T20:15:02.202Z,5.80
2023-06-16T20:17:29.992Z,5.78
2023-06-16T20:19:59.056Z,5.68
2023-06-16T20:22:26.856Z,5.88
2023-06-16T20:24:54.626Z,5.32
2023-06-16T20:27:22.381Z,5.93
2023-06-16T20:29:50.862Z,5.78
2023-06-16T20:32:18.677Z,5.57
2023-06-16T20:34:47.378Z,6.32
2023-06-16T20:37:18.478Z,6.15
2023-06-16T20:39:46.644Z,6.13
2023-06-16T20:42:15.343Z,6.97
2023-06-16T20:44:43.332Z,5.72
2023-06-16T20:47:11.115Z,5.78
2023-06-16T20:49:41.433Z,6.15
2023-06-16T20:52:09.727Z,5.90
2023-06-16T20:54:38.884Z,6.05
2023-06-16T20:57:07.825Z,5.75
2023-06-16T20:59:36.701Z,6.43
2023-06-16T21:02:07.303Z,5.85
2023-06-16T21:04:35.232Z,6.35
2023-06-16T21:07:03.870Z,6.22
2023-06-16T21:09:32.372Z,5.80
2023-06-16T21:12:01.458Z,6.82
2023-06-16T21:14:29.273Z,6.20
2023-06-16T21:16:57.022Z,6.38
2023-06-16T21:19:37.930Z,5.85
2023-06-16T21:22:09.997Z,6.10
2023-06-16T21:24:37.800Z,5.90
2023-06-16T21:27:07.615Z,6.15
2023-06-16T21:29:35.446Z,6.80
2023-06-16T21:32:03.466Z,6.28
2023-06-16T21:34:31.257Z,5.78
2023-06-16T21:37:00.185Z,5.97
2023-06-16T21:39:29.234Z,6.22
2023-06-16T21:41:57.003Z,6.70
2023-06-16T21:44:26.438Z,6.25
2023-06-16T21:46:54.226Z,6.68
2023-06-16T21:49:21.945Z,6.13
2023-06-16T21:51:49.708Z,5.80
2023-06-16T21:54:17.416Z,6.78
2023-06-16T21:56:45.175Z,6.70
2023-06-16T21:59:13.280Z,6.18
2023-06-16T22:01:42.366Z,6.25
2023-06-16T22:04:10.161Z,6.82
2023-06-16T22:06:38.457Z,6.18
2023-06-16T22:09:06.287Z,6.50
2023-06-16T22:11:34.237Z,6.18
2023-06-16T22:14:02.127Z,6.68
2023-06-16T22:16:30.039Z,7.07
2023-06-16T22:18:59.199Z,6.55
2023-06-16T22:21:26.992Z,6.40
2023-06-16T22:23:54.873Z,5.95
2023-06-16T22:26:23.509Z,6.88
2023-06-16T22:28:52.074Z,6.38
2023-06-16T22:31:21.172Z,6.13
2023-06-16T22:33:48.928Z,6.00
2023-06-16T22:36:18.055Z,6.45
2023-06-16T22:38:46.099Z,6.43
2023-06-16T22:41:13.828Z,6.05
2023-06-16T22:43:41.908Z,6.47
2023-06-16T22:46:09.729Z,6.32
2023-06-16T22:48:37.728Z,5.93
2023-06-16T22:51:06.022Z,6.22
2023-06-16T22:53:35.122Z,6.03
2023-06-16T22:56:05.089Z,5.85
2023-06-16T22:58:32.953Z,6.28
2023-06-16T23:01:00.698Z,6.38
2023-06-16T23:03:28.477Z,6.18
2023-06-16T23:05:56.302Z,6.07
2023-06-16T23:08:24.336Z,7.03
2023-06-16T23:10:53.494Z,6.72
2023-06-16T23:13:21.338Z,6.22
2023-06-16T23:15:50.770Z,6.07
2023-06-16T23:18:18.582Z,6.65
2023-06-16T23:20:46.711Z,6.03
2023-06-16T23:23:14.748Z,6.60
2023-06-16T23:25:42.663Z,6.22
2023-06-16T23:28:11.759Z,6.13
2023-06-16T23:30:40.121Z,6.05
2023-06-16T23:33:08.043Z,6.32
2023-06-16T23:35:35.796Z,5.60
2023-06-16T23:38:04.049Z,5.85
2023-06-16T23:40:31.801Z,6.13
2023-06-16T23:42:59.550Z,5.60
2023-06-16T23:45:28.750Z,5.65
2023-06-16T23:47:56.492Z,5.70
2023-06-16T23:50:24.337Z,6.40
2023-06-16T23:52:52.132Z,6.00
2023-06-16T23:55:19.875Z,6.13
2023-06-16T23:57:48.250Z,6.82
